Time;durP1;ratioP1;P1;durP2;ratioP2;P2;SDS_P1;SDS_P2;PMS_P1;PMS_P2;Temp;Humidity;BMP_temperature;BMP_pressure;BME280_temperature;BME280_humidity;BME280_pressure;Samples;Min_cycle;Max_cycle;Signal;HPM_P1;HPM_P2
2021/06/14 00:00:14;;;;;;;;;;;12.70;99.90;;;11.20;80.02;102074.56;3443684;40;102939;-42
2021/06/14 00:02:43;;;;;;;;;;;12.60;99.90;;;11.17;80.14;102079.56;3443466;40;103621;-41
2021/06/14 00:05:29;;;;;;;;;;;12.60;99.90;;;11.18;80.05;102075.78;3443486;41;102260;-40
2021/06/14 00:07:58;;;;;;;;;;;12.60;99.90;;;11.15;80.02;102076.19;3443701;40;102389;-41
2021/06/14 00:10:28;;;;;;;;;;;12.60;99.90;;;11.12;79.99;102073.78;3443693;41;102860;-41
2021/06/14 00:12:56;;;;;;;;;;;12.50;99.90;;;11.09;80.21;102072.28;3443811;41;104361;-41
2021/06/14 00:15:25;;;;;;;;;;;12.50;99.90;;;11.04;79.92;102067.38;3443628;40;102375;-41
2021/06/14 00:17:52;;;;;;;;;;;12.40;99.90;;;10.98;80.00;102070.84;3443543;41;102398;-41
2021/06/14 00:20:21;;;;;;;;;;;12.40;99.90;;;10.90;80.11;102057.28;3443873;40;102200;-40
2021/06/14 00:22:49;;;;;;;;;;;12.40;99.90;;;10.87;80.33;102055.75;3585930;23;103430;-40
2021/06/14 00:25:21;;;;;;;;;;;12.30;99.90;;;10.86;80.70;102061.38;3462088;40;103845;-41
2021/06/14 00:27:48;;;;;;;;;;;12.30;99.90;;;10.84;80.88;102055.28;3463082;40;103134;-41
2021/06/14 00:30:43;;;;;;;;;;;12.30;99.90;;;10.79;80.94;102064.03;3462466;40;102942;-42
2021/06/14 00:33:12;;;;;;;;;;;12.20;99.90;;;10.74;80.36;102050.06;3462419;40;104246;-41
2021/06/14 00:35:41;;;;;;;;;;;12.10;99.90;;;10.70;80.43;102049.59;3462652;40;102582;-40
2021/06/14 00:38:09;;;;;;;;;;;12.10;99.90;;;10.64;80.79;102062.09;3462597;40;102333;-41
2021/06/14 00:40:37;;;;;;;;;;;12.10;99.90;;;10.61;81.20;102047.97;3462792;40;102278;-41
2021/06/14 00:43:12;;;;;;;;;;;12.10;99.90;;;10.58;81.03;102045.59;3461920;40;103044;-41
2021/06/14 00:45:45;;;;;;;;;;;12.00;99.90;;;10.53;80.72;102045.28;3462314;40;102241;-41
2021/06/14 00:48:14;;;;;;;;;;;12.00;99.90;;;10.46;80.90;102043.31;3462649;40;102222;-41
2021/06/14 00:50:54;;;;;;;;;;;11.90;99.90;;;10.45;81.61;102040.75;3462121;40;102584;-40
2021/06/14 00:53:37;;;;;;;;;;;11.90;99.90;;;10.42;81.71;102035.66;3453003;40;105024;-40
2021/06/14 00:56:11;;;;;;;;;;;11.90;99.90;;;10.39;81.05;102042.31;3461681;40;102224;-41
2021/06/14 00:58:41;;;;;;;;;;;11.80;99.90;;;10.34;81.28;102033.78;3453030;40;104901;-41
2021/06/14 01:01:09;;;;;;;;;;;11.80;99.90;;;10.31;81.29;102028.69;3462492;40;103004;-41
2021/06/14 01:03:37;;;;;;;;;;;11.80;99.90;;;10.28;81.54;102023.63;3462089;40;104959;-41
2021/06/14 01:06:08;;;;;;;;;;;11.70;99.90;;;10.28;82.00;102020.88;3462532;40;102268;-41
2021/06/14 01:08:43;;;;;;;;;;;11.70;99.90;;;10.22;82.08;102023.31;3461922;40;103155;-40
2021/06/14 01:11:21;;;;;;;;;;;11.70;99.90;;;10.20;81.97;102027.25;3453323;40;102292;-42
2021/06/14 01:14:02;;;;;;;;;;;11.60;99.90;;;10.18;81.96;102018.38;3461774;40;103281;-41
2021/06/14 01:16:44;;;;;;;;;;;11.60;99.90;;;10.14;81.85;102017.94;3462298;40;103605;-41
2021/06/14 01:19:40;;;;;;;;;;;11.60;99.90;;;10.14;82.02;102017.94;3462135;40;102367;-41
2021/06/14 01:22:44;;;;;;;;;;;11.60;99.90;;;10.11;82.29;102011.97;3462052;40;102471;-41
2021/06/14 01:25:18;;;;;;;;;;;11.60;99.90;;;10.09;82.15;102009.44;3453243;40;102362;-40
2021/06/14 01:27:50;;;;;;;;;;;11.60;99.90;;;10.04;81.93;102004.53;3462017;40;102266;-40
2021/06/14 01:30:30;;;;;;;;;;;11.50;99.90;;;10.01;81.67;102004.00;3462386;40;104033;-40
2021/06/14 01:33:02;;;;;;;;;;;11.50;99.90;;;9.99;81.82;101998.75;3462148;40;102437;-41
2021/06/14 01:35:35;;;;;;;;;;;11.50;99.90;;;9.99;81.86;101997.91;3462290;40;103298;-40
2021/06/14 01:38:06;;;;;;;;;;;11.50;99.90;;;9.97;81.97;101997.22;3453045;40;102451;-41
2021/06/14 01:40:36;;;;;;;;;;;11.40;99.90;;;9.93;81.63;101985.81;3453324;40;103166;-41
2021/06/14 01:43:08;;;;;;;;;;;11.40;99.90;;;9.93;82.06;101989.41;3453074;40;102354;-41
2021/06/14 01:45:41;;;;;;;;;;;11.40;99.90;;;9.90;81.85;101983.47;3453098;40;102218;-41
2021/06/14 01:48:10;;;;;;;;;;;11.40;99.90;;;9.88;81.96;101980.94;3461933;40;102211;-40
2021/06/14 01:50:41;;;;;;;;;;;11.40;99.90;;;9.85;82.22;101978.56;3462242;40;103110;-40
2021/06/14 01:53:09;;;;;;;;;;;11.30;99.90;;;9.84;82.12;101978.75;3461921;40;102427;-40
2021/06/14 01:55:38;;;;;;;;;;;11.30;99.90;;;9.80;82.00;101967.34;3461635;40;103267;-41
2021/06/14 01:58:07;;;;;;;;;;;11.30;99.90;;;9.79;82.26;101979.25;3462125;40;102263;-41
2021/06/14 02:00:43;;;;;;;;;;;11.30;99.90;;;9.79;82.35;101979.25;3453016;40;104269;-41
2021/06/14 02:03:40;;;;;;;;;;;11.30;99.90;;;9.73;82.18;101972.69;3454601;40;102370;-40
2021/06/14 02:06:33;;;;;;;;;;;11.20;99.90;;;9.73;82.72;101974.53;3456578;40;102304;-40
2021/06/14 02:09:08;;;;;;;;;;;11.20;99.90;;;9.70;82.22;101964.00;3453143;40;102899;-40
2021/06/14 02:11:39;;;;;;;;;;;11.20;99.90;;;9.66;82.23;101963.50;3453074;40;102430;-40
2021/06/14 02:14:10;;;;;;;;;;;11.10;99.90;;;9.58;82.29;101958.97;3462019;40;102179;-40
2021/06/14 02:16:38;;;;;;;;;;;11.10;99.90;;;9.57;82.35;101960.00;3453016;40;103120;-40
2021/06/14 02:19:07;;;;;;;;;;;11.10;99.90;;;9.55;82.59;101961.19;3452887;40;102455;-40
2021/06/14 02:21:35;;;;;;;;;;;11.00;99.90;;;9.52;82.93;101959.66;3461685;40;104338;-42
2021/06/14 02:24:03;;;;;;;;;;;11.00;99.90;;;9.51;82.78;101966.13;3452597;40;102875;-40
2021/06/14 02:26:31;;;;;;;;;;;11.00;99.90;;;9.49;82.47;101965.44;3452977;40;104287;-42
2021/06/14 02:28:58;;;;;;;;;;;11.00;99.90;;;9.48;82.73;101963.75;3453050;40;102866;-40
2021/06/14 02:31:26;;;;;;;;;;;11.00;99.90;;;9.48;82.75;101963.75;3461685;40;102646;-41
2021/06/14 02:33:53;;;;;;;;;;;11.00;99.90;;;9.44;82.49;101963.28;3452803;40;102448;-39
2021/06/14 02:36:23;;;;;;;;;;;10.90;99.90;;;9.41;82.75;101951.88;3461439;40;103404;-40
2021/06/14 02:38:52;;;;;;;;;;;10.90;99.90;;;9.37;82.73;101950.53;3461674;40;102381;-41
2021/06/14 02:41:22;;;;;;;;;;;10.90;99.90;;;9.34;82.82;101957.19;3461476;40;104930;-43
2021/06/14 02:43:53;;;;;;;;;;;10.80;99.90;;;9.35;83.17;101962.47;3461655;40;102161;-43
2021/06/14 02:46:22;;;;;;;;;;;10.80;99.90;;;9.32;82.83;101948.34;3453067;40;102355;-40
2021/06/14 02:48:51;;;;;;;;;;;10.80;99.90;;;9.30;83.00;101953.13;3452833;40;102885;-41
2021/06/14 02:51:20;;;;;;;;;;;10.80;99.90;;;9.29;83.46;101949.56;3461761;40;102272;-40
2021/06/14 02:54:03;;;;;;;;;;;10.80;99.90;;;9.26;83.16;101947.16;3461396;40;102331;-40
2021/06/14 02:56:35;;;;;;;;;;;10.80;99.90;;;9.28;83.65;101953.31;3461689;40;102344;-41
2021/06/14 02:59:05;;;;;;;;;;;10.80;99.90;;;9.27;83.40;101957.03;3461404;40;104021;-41
2021/06/14 03:01:35;;;;;;;;;;;10.80;99.90;;;9.27;83.40;101956.19;3452706;40;103160;-41
2021/06/14 03:04:06;;;;;;;;;;;10.80;99.90;;;9.26;83.59;101949.06;3452645;40;104641;-40
2021/06/14 03:06:33;;;;;;;;;;;10.70;99.90;;;9.24;83.54;101949.22;3462000;40;103240;-41
2021/06/14 03:09:06;;;;;;;;;;;10.70;99.90;;;9.22;83.69;101937.66;3452711;40;102397;-43
2021/06/14 03:11:35;;;;;;;;;;;10.70;99.90;;;9.20;83.48;101934.25;3452724;40;103143;-40
2021/06/14 03:14:11;;;;;;;;;;;10.70;99.90;;;9.18;84.01;101941.75;3452536;40;102295;-40
2021/06/14 03:16:39;;;;;;;;;;;10.70;99.90;;;9.16;83.46;101932.91;3461100;40;103201;-41
2021/06/14 03:19:09;;;;;;;;;;;10.60;99.90;;;9.14;84.05;101932.25;3461789;40;102834;-41
2021/06/14 03:21:37;;;;;;;;;;;10.60;99.90;;;9.10;84.04;101929.03;3452417;40;103322;-40
2021/06/14 03:24:09;;;;;;;;;;;10.60;99.90;;;9.13;84.17;101927.81;3461338;40;102382;-40
2021/06/14 03:26:39;;;;;;;;;;;10.60;99.90;;;9.14;84.39;101924.91;3461210;40;104276;-41
2021/06/14 03:29:09;;;;;;;;;;;10.60;99.90;;;9.15;84.32;101925.78;3461886;40;102168;-40
2021/06/14 03:31:37;;;;;;;;;;;10.60;99.90;;;9.14;84.42;101927.63;3461419;40;103274;-41
2021/06/14 03:34:05;;;;;;;;;;;10.60;99.90;;;9.17;84.23;101926.44;3461158;40;102441;-41
2021/06/14 03:36:33;;;;;;;;;;;10.60;99.90;;;9.19;84.41;101924.41;3461569;40;104068;-41
2021/06/14 03:39:01;;;;;;;;;;;10.60;99.90;;;9.25;84.85;101920.97;3461034;40;102102;-40
2021/06/14 03:41:30;;;;;;;;;;;10.70;99.90;;;9.29;84.93;101916.88;3461442;40;102365;-41
2021/06/14 03:44:01;;;;;;;;;;;10.70;99.90;;;9.35;84.70;101918.03;3461401;40;102269;-37
2021/06/14 03:46:29;;;;;;;;;;;10.80;99.90;;;9.35;84.62;101912.56;3461277;40;103293;-41
2021/06/14 03:48:57;;;;;;;;;;;10.80;99.90;;;9.40;84.77;101917.50;3461490;40;102660;-40
2021/06/14 03:51:24;;;;;;;;;;;10.80;99.90;;;9.43;84.79;101917.13;3461372;40;103328;-40
2021/06/14 03:53:58;;;;;;;;;;;10.90;99.90;;;9.48;84.68;101920.16;3461084;40;102129;-41
2021/06/14 03:56:27;;;;;;;;;;;10.90;99.90;;;9.55;85.07;101931.22;3461292;40;102743;-40
2021/06/14 03:58:55;;;;;;;;;;;10.90;99.90;;;9.59;85.24;101927.09;3460765;40;102457;-40
2021/06/14 04:01:23;;;;;;;;;;;11.00;99.90;;;9.67;85.40;101920.75;3460973;40;103342;-40
2021/06/14 04:04:40;;;;;;;;;;;11.10;99.90;;;9.75;84.54;101923.41;3461308;40;102351;-40
2021/06/14 04:06:38;;;;;;;;;;;11.10;99.90;;;9.87;84.78;101923.84;3454069;40;103156;-40
2021/06/14 04:09:07;;;;;;;;;;;11.20;99.90;;;9.99;83.97;101922.44;3460958;40;103995;-40
2021/06/14 04:11:34;;;;;;;;;;;11.30;99.90;;;10.08;83.61;101915.88;3460958;40;102365;-41
2021/06/14 04:14:01;;;;;;;;;;;11.40;99.90;;;10.20;82.97;101915.41;3461152;40;102873;-40
2021/06/14 04:16:28;;;;;;;;;;;11.50;99.90;;;10.28;83.69;101915.38;3461178;40;102178;-41
2021/06/14 04:18:56;;;;;;;;;;;11.60;99.90;;;10.38;83.08;101908.81;3460830;40;102424;-40
2021/06/14 04:21:23;;;;;;;;;;;11.70;99.90;;;10.47;82.86;101908.56;3461187;40;104507;-40
2021/06/14 04:23:51;;;;;;;;;;;11.80;99.90;;;10.62;82.22;101900.41;3460833;40;102414;-42
2021/06/14 04:26:18;;;;;;;;;;;11.90;99.90;;;10.78;81.69;101904.84;3460895;40;102837;-41
2021/06/14 04:28:45;;;;;;;;;;;12.00;99.90;;;10.94;80.82;101900.25;3461301;40;102454;-40
2021/06/14 04:31:12;;;;;;;;;;;12.20;99.90;;;11.18;80.24;101892.78;3462188;40;103381;-40
2021/06/14 04:33:40;;;;;;;;;;;12.40;99.90;;;11.40;79.49;101899.16;3462673;40;103162;-41
2021/06/14 04:36:07;;;;;;;;;;;12.60;99.90;;;11.61;78.36;101897.50;3462181;40;104181;-41
2021/06/14 04:38:35;;;;;;;;;;;12.80;99.90;;;11.82;78.12;101896.66;3462041;40;102272;-40
2021/06/14 04:41:02;;;;;;;;;;;13.00;99.90;;;12.10;76.05;101904.13;3462760;40;103546;-40
2021/06/14 04:43:29;;;;;;;;;;;13.20;99.90;;;12.38;75.53;101900.56;3462544;40;102233;-41
2021/06/14 04:45:57;;;;;;;;;;;13.40;99.90;;;12.64;75.58;101902.66;3462225;40;102341;-40
2021/06/14 04:48:24;;;;;;;;;;;13.70;99.90;;;12.95;74.20;101897.78;3462102;40;102412;-41
2021/06/14 04:50:52;;;;;;;;;;;13.90;99.90;;;13.26;72.91;101898.34;3461963;40;102305;-41
2021/06/14 04:53:20;;;;;;;;;;;14.20;99.90;;;13.58;72.28;101898.72;3462055;40;102230;-41
2021/06/14 04:55:47;;;;;;;;;;;14.50;99.90;;;13.90;68.63;101902.59;3461695;40;103260;-41
2021/06/14 04:58:15;;;;;;;;;;;14.80;99.90;;;14.17;66.61;101899.88;3462346;40;102189;-40
2021/06/14 05:00:42;;;;;;;;;;;15.10;99.90;;;14.45;68.11;101912.53;3462781;40;103937;-44
2021/06/14 05:03:10;;;;;;;;;;;15.40;99.90;;;14.66;66.17;101907.88;3462197;40;102647;-40
2021/06/14 05:05:38;;;;;;;;;;;15.60;99.90;;;14.90;65.76;101903.63;3462126;40;103155;-40
2021/06/14 05:08:06;;;;;;;;;;;15.80;99.90;;;15.16;64.42;101906.50;3462217;40;102173;-41
2021/06/14 05:10:33;;;;;;;;;;;16.00;99.90;;;15.28;62.11;101903.94;3461893;40;102495;-41
2021/06/14 05:13:01;;;;;;;;;;;16.20;99.90;;;15.47;62.79;101902.16;3462211;40;102276;-40
2021/06/14 05:15:28;;;;;;;;;;;16.40;99.90;;;15.63;61.76;101907.13;3461884;40;103530;-41
2021/06/14 05:17:56;;;;;;;;;;;16.50;99.90;;;15.79;61.05;101905.78;3462213;40;102374;-41
2021/06/14 05:20:23;;;;;;;;;;;16.70;99.90;;;16.00;61.77;101913.94;3461896;40;102424;-41
2021/06/14 05:22:51;;;;;;;;;;;16.90;99.90;;;16.20;60.53;101913.78;3461979;40;102226;-41
2021/06/14 05:25:19;;;;;;;;;;;17.10;99.90;;;16.39;59.34;101910.03;3462375;40;104296;-41
2021/06/14 05:27:46;;;;;;;;;;;17.30;99.90;;;16.54;58.26;101911.56;3462347;40;102262;-41
2021/06/14 05:30:14;;;;;;;;;;;17.40;99.90;;;16.69;60.39;101919.47;3462407;40;103094;-40
2021/06/14 05:32:43;;;;;;;;;;;17.60;99.90;;;16.89;56.39;101913.78;3462501;40;102837;-41
2021/06/14 05:35:12;;;;;;;;;;;17.80;99.90;;;17.05;59.34;101901.34;3462349;40;102259;-41
2021/06/14 05:37:39;;;;;;;;;;;17.90;99.90;;;17.19;58.26;101906.66;3461845;40;102364;-41
2021/06/14 05:40:09;;;;;;;;;;;18.00;99.90;;;17.33;60.46;101907.34;3461512;40;103619;-41
2021/06/14 05:42:36;;;;;;;;;;;18.10;99.90;;;17.49;60.53;101905.88;3462310;40;102356;-43
2021/06/14 05:45:06;;;;;;;;;;;18.30;99.90;;;17.45;60.71;101904.66;3461982;40;103203;-41
2021/06/14 05:47:33;;;;;;;;;;;18.40;99.90;;;17.48;57.04;101905.03;3462031;40;102432;-41
2021/06/14 05:50:03;;;;;;;;;;;18.40;99.90;;;17.60;59.00;101907.84;3462159;40;103548;-42
2021/06/14 05:52:30;;;;;;;;;;;18.40;99.90;;;17.84;59.34;101913.47;3462034;40;102312;-42
2021/06/14 05:54:58;;;;;;;;;;;18.60;99.90;;;17.79;59.67;101916.91;3453419;40;102552;-41
2021/06/14 05:57:26;;;;;;;;;;;18.70;99.90;;;18.00;58.42;101913.84;3461969;40;102243;-40
2021/06/14 05:59:55;;;;;;;;;;;18.80;99.90;;;18.04;59.05;101904.91;3462068;40;103220;-42
2021/06/14 06:02:23;;;;;;;;;;;18.90;99.90;;;18.01;54.39;101901.72;3462311;40;102427;-41
2021/06/14 06:04:50;;;;;;;;;;;18.90;99.90;;;18.17;53.53;101901.06;3461702;40;102336;-42
2021/06/14 06:07:18;;;;;;;;;;;19.00;99.90;;;18.19;56.53;101904.44;3462162;40;102427;-41
2021/06/14 06:09:45;;;;;;;;;;;19.10;99.90;;;18.14;58.15;101900.69;3461980;40;103355;-41
2021/06/14 06:12:12;;;;;;;;;;;19.10;99.90;;;18.14;55.77;101900.69;3462094;40;103562;-41
2021/06/14 06:14:40;;;;;;;;;;;19.10;99.90;;;18.39;55.76;101904.09;3462410;40;103296;-43
2021/06/14 06:17:07;;;;;;;;;;;19.20;99.90;;;18.46;56.35;101884.66;3462241;40;102256;-41
2021/06/14 06:19:35;;;;;;;;;;;19.30;99.90;;;18.59;54.74;101902.09;3462135;40;103824;-41
2021/06/14 06:22:03;;;;;;;;;;;19.50;99.90;;;18.77;54.22;101909.41;3583979;23;104812;-41
2021/06/14 06:24:31;;;;;;;;;;;19.60;99.90;;;18.96;53.19;101901.78;3448614;40;102825;-42
2021/06/14 06:27:00;;;;;;;;;;;19.70;99.90;;;18.94;53.15;101901.19;3452877;40;103042;-41
2021/06/14 06:29:27;;;;;;;;;;;19.80;99.90;;;19.09;54.10;101896.00;3452500;40;102318;-42
2021/06/14 06:31:55;;;;;;;;;;;19.90;99.90;;;19.30;51.36;101893.69;3452843;40;102637;-41
2021/06/14 06:34:22;;;;;;;;;;;20.10;99.90;;;19.39;51.08;101891.38;3452234;40;102211;-41
2021/06/14 06:36:50;;;;;;;;;;;20.20;99.90;;;19.41;52.69;101897.50;3452600;40;103016;-42
2021/06/14 06:39:17;;;;;;;;;;;20.30;99.90;;;19.48;51.68;101898.19;3452684;40;102254;-41
2021/06/14 06:41:45;;;;;;;;;;;20.30;99.90;;;19.70;51.72;101903.03;3452858;40;102847;-42
2021/06/14 06:44:12;;;;;;;;;;;20.50;99.90;;;19.83;49.45;101904.66;3452511;40;102428;-41
2021/06/14 06:46:40;;;;;;;;;;;20.60;99.90;;;19.85;49.66;101919.06;3452359;40;102351;-41
2021/06/14 06:49:07;;;;;;;;;;;20.60;99.90;;;20.11;49.18;101912.09;3453134;40;103948;-41
2021/06/14 06:51:35;;;;;;;;;;;20.80;99.90;;;20.31;49.35;101918.25;3452845;40;102287;-41
2021/06/14 06:54:12;;;;;;;;;;;21.00;99.90;;;20.12;47.91;101926.78;3452592;40;102223;-41
2021/06/14 06:56:49;;;;;;;;;;;20.90;98.60;;;20.18;48.83;101923.03;3452442;40;102273;-41
2021/06/14 06:59:18;;;;;;;;;;;21.00;99.60;;;20.32;49.82;101928.22;3452696;40;104105;-41
2021/06/14 07:01:45;;;;;;;;;;;21.10;99.50;;;20.45;48.14;101925.13;3452286;40;102160;-41
2021/06/14 07:04:13;;;;;;;;;;;21.20;99.00;;;20.63;47.50;101923.16;3452769;40;102212;-41
2021/06/14 07:06:41;;;;;;;;;;;21.30;98.60;;;20.74;48.14;101904.75;3452640;40;102278;-41
2021/06/14 07:09:08;;;;;;;;;;;21.50;99.10;;;20.77;47.23;101910.63;3452132;40;102174;-41
2021/06/14 07:11:36;;;;;;;;;;;21.60;97.80;;;20.86;46.26;101907.44;3452245;40;102172;-43
2021/06/14 07:14:05;;;;;;;;;;;21.60;97.00;;;20.89;46.83;101915.25;3452367;40;103277;-41
2021/06/14 07:16:34;;;;;;;;;;;21.70;96.60;;;20.92;46.57;101912.81;3452446;40;102454;-41
2021/06/14 07:19:03;;;;;;;;;;;21.70;96.60;;;20.89;46.21;101913.34;3452636;40;103368;-41
2021/06/14 07:21:30;;;;;;;;;;;21.70;96.40;;;20.76;46.18;101911.72;3451803;40;102437;-41
2021/06/14 07:23:58;;;;;;;;;;;21.60;95.70;;;21.01;44.87;101907.66;3452323;40;102797;-40
2021/06/14 07:26:26;;;;;;;;;;;21.80;94.80;;;21.15;46.65;101891.47;3452418;40;102383;-41
2021/06/14 07:28:53;;;;;;;;;;;21.90;96.10;;;21.17;44.70;101899.53;3452738;40;103374;-41
2021/06/14 07:31:21;;;;;;;;;;;22.00;94.20;;;21.12;44.78;101892.00;3452366;40;102996;-40
2021/06/14 07:33:48;;;;;;;;;;;22.00;93.90;;;21.27;46.01;101891.34;3452682;40;103138;-41
2021/06/14 07:36:16;;;;;;;;;;;22.10;95.80;;;21.12;46.14;101876.19;3451765;40;102376;-41
2021/06/14 07:38:43;;;;;;;;;;;22.00;95.00;;;21.35;44.32;101874.22;3452035;40;103323;-41
2021/06/14 07:41:11;;;;;;;;;;;22.10;93.50;;;21.35;47.41;101879.78;3452373;40;102410;-42
2021/06/14 07:43:38;;;;;;;;;;;22.20;95.60;;;21.51;46.71;101883.56;3452401;40;102442;-41
2021/06/14 07:46:06;;;;;;;;;;;22.30;95.50;;;21.58;44.93;101875.03;3452509;40;102331;-42
2021/06/14 07:48:35;;;;;;;;;;;22.30;93.60;;;21.92;45.90;101866.50;3451985;40;102317;-42
2021/06/14 07:51:04;;;;;;;;;;;22.50;95.20;;;22.11;44.41;101866.91;3452026;40;102487;-41
2021/06/14 07:53:31;;;;;;;;;;;22.70;94.10;;;21.75;43.85;101861.06;3452010;40;102712;-41
2021/06/14 07:55:59;;;;;;;;;;;22.70;92.00;;;21.88;45.11;101854.22;3451912;40;102931;-41
2021/06/14 07:58:26;;;;;;;;;;;22.70;93.70;;;21.99;43.92;101842.09;3451823;40;102737;-42
2021/06/14 08:00:54;;;;;;;;;;;22.70;92.60;;;21.94;45.45;101849.56;3452387;40;102186;-42
2021/06/14 08:03:23;;;;;;;;;;;22.70;93.70;;;21.95;44.63;101851.25;3452250;40;102439;-41
2021/06/14 08:05:51;;;;;;;;;;;22.70;93.00;;;22.06;44.94;101849.38;3452919;40;102465;-42
2021/06/14 08:08:19;;;;;;;;;;;22.80;93.20;;;22.15;43.30;101852.50;3453245;40;102393;-42
2021/06/14 08:10:50;;;;;;;;;;;22.90;91.40;;;22.15;43.84;101846.94;3453799;40;102878;-41
2021/06/14 08:13:17;;;;;;;;;;;22.90;92.00;;;22.33;44.25;101831.81;3453348;40;103849;-41
2021/06/14 08:15:45;;;;;;;;;;;23.00;92.60;;;22.60;41.75;101836.44;3453039;40;102425;-41
2021/06/14 08:21:08;;;;;;;;;;;23.30;90.90;;;22.93;41.95;101832.41;3452899;40;102428;-42
2021/06/14 08:26:27;;;;;;;;;;;23.70;89.70;;;23.21;42.12;101847.00;3453396;40;102210;-42
2021/06/14 08:28:57;;;;;;;;;;;23.80;89.60;;;23.37;42.96;101839.53;3452903;40;102356;-41
2021/06/14 08:31:29;;;;;;;;;;;23.90;91.00;;;23.29;41.25;101842.84;3453419;40;102453;-41
2021/06/14 08:33:57;;;;;;;;;;;24.00;86.00;;;23.47;39.97;101849.84;3453178;40;102468;-44
2021/06/14 08:36:25;;;;;;;;;;;24.10;86.00;;;23.60;41.10;101837.31;3452709;40;102446;-42
2021/06/14 08:38:54;;;;;;;;;;;24.20;88.20;;;23.64;41.15;101838.47;3452902;40;102256;-41
2021/06/14 08:41:24;;;;;;;;;;;24.30;86.90;;;23.66;40.47;101829.81;3453054;40;102275;-41
2021/06/14 08:43:56;;;;;;;;;;;24.30;84.90;;;23.74;41.17;101823.72;3453086;40;102253;-41
2021/06/14 08:46:25;;;;;;;;;;;24.40;86.10;;;23.69;41.34;101827.31;3452975;40;102303;-42
2021/06/14 08:48:53;;;;;;;;;;;24.40;86.30;;;23.64;40.63;101816.19;3452963;40;102192;-41
2021/06/14 08:51:21;;;;;;;;;;;24.40;83.50;;;23.87;40.37;101818.69;3452519;40;102464;-41
2021/06/14 08:53:51;;;;;;;;;;;24.50;83.20;;;23.91;42.54;101815.06;3444284;40;103291;-41
2021/06/14 08:56:27;;;;;;;;;;;24.50;88.30;;;23.86;39.13;101812.28;3444357;40;102758;-41
2021/06/14 08:58:56;;;;;;;;;;;24.50;80.30;;;23.90;39.15;101824.56;3452887;40;102353;-41
2021/06/14 09:01:24;;;;;;;;;;;24.50;81.00;;;24.17;40.92;101820.66;3452835;40;102418;-41
2021/06/14 09:03:52;;;;;;;;;;;24.70;84.60;;;24.32;40.71;101818.94;3452922;40;102196;-43
2021/06/14 09:06:19;;;;;;;;;;;24.90;83.80;;;24.47;40.86;101816.13;3452818;40;102309;-42
2021/06/14 09:08:58;;;;;;;;;;;25.10;83.20;;;24.35;38.13;101808.06;3452991;40;102683;-41
2021/06/14 09:11:30;;;;;;;;;;;25.00;81.10;;;24.52;37.75;101807.75;3453067;40;102965;-41
2021/06/14 09:14:01;;;;;;;;;;;25.10;77.90;;;24.58;37.76;101797.41;3452394;40;102285;-40
2021/06/14 09:16:31;;;;;;;;;;;25.20;76.20;;;24.64;37.33;101795.41;3452967;40;102332;-42
2021/06/14 09:18:59;;;;;;;;;;;25.30;75.70;;;24.74;39.81;101791.75;3452474;40;103680;-41
2021/06/14 09:21:29;;;;;;;;;;;25.40;78.20;;;24.88;38.20;101792.00;3452743;40;102565;-41
2021/06/14 09:23:59;;;;;;;;;;;25.50;76.40;;;24.89;38.14;101788.94;3453051;40;103332;-41
2021/06/14 09:26:31;;;;;;;;;;;25.50;76.70;;;24.97;36.81;101781.91;3452628;40;102532;-39
2021/06/14 09:28:59;;;;;;;;;;;25.60;73.30;;;25.12;38.17;101765.06;3452798;40;103182;-39
2021/06/14 09:31:35;;;;;;;;;;;25.70;76.10;;;25.23;36.64;101765.84;3452548;40;102357;-40
2021/06/14 09:34:03;;;;;;;;;;;25.90;73.10;;;25.26;37.05;101758.84;3452790;40;103269;-40
2021/06/14 09:36:31;;;;;;;;;;;25.90;73.10;;;25.33;38.06;101756.56;3452756;40;102390;-41
2021/06/14 09:39:07;;;;;;;;;;;25.90;74.50;;;25.47;37.16;101762.34;3452795;40;102326;-41
2021/06/14 09:41:44;;;;;;;;;;;26.00;72.30;;;25.37;35.07;101752.06;3452263;40;102557;-42
2021/06/14 09:44:12;;;;;;;;;;;26.00;68.70;;;25.29;35.98;101749.88;3452536;40;102738;-42
2021/06/14 09:46:40;;;;;;;;;;;26.00;69.30;;;25.37;37.24;101749.25;3452978;40;102478;-43
2021/06/14 09:49:17;;;;;;;;;;;26.00;71.00;;;25.65;35.91;101752.41;3452869;40;104169;-41
2021/06/14 09:51:51;;;;;;;;;;;26.20;69.50;;;25.90;35.34;101749.69;3452248;40;102112;-41
2021/06/14 09:54:30;;;;;;;;;;;26.40;68.60;;;25.96;36.58;101748.50;3452993;40;102368;-41
2021/06/14 09:56:59;;;;;;;;;;;26.50;69.80;;;25.69;34.87;101744.28;3452594;40;102154;-41
2021/06/14 09:59:41;;;;;;;;;;;26.50;66.50;;;25.67;33.67;101750.16;3452799;40;103209;-41
2021/06/14 10:02:14;;;;;;;;;;;26.40;64.60;;;25.82;35.41;101753.94;3452608;40;102112;-51
2021/06/14 10:04:41;;;;;;;;;;;26.50;67.80;;;25.94;33.34;101751.56;3452676;40;102208;-41
2021/06/14 10:07:14;;;;;;;;;;;26.50;63.40;;;26.11;33.23;101750.28;3452802;40;102715;-39
2021/06/14 10:09:43;;;;;;;;;;;;;;;26.30;33.93;101752.38;3452539;40;102427;-41
2021/06/14 10:12:25;;;;;;;;;;;26.70;62.80;;;26.32;34.69;101755.69;3452320;40;102844;-42
2021/06/14 10:15:03;;;;;;;;;;;26.90;64.80;;;26.07;33.64;101752.03;3452669;40;102845;-41
2021/06/14 10:17:38;;;;;;;;;;;26.80;63.10;;;26.35;36.41;101755.91;3452714;40;102430;-41
2021/06/14 10:20:10;;;;;;;;;;;;;;;26.41;31.90;101745.50;3452870;40;104229;-41
2021/06/14 10:22:38;;;;;;;;;;;;;;;26.73;32.04;101746.75;3452777;40;102963;-42
2021/06/14 10:25:08;;;;;;;;;;;;;;;26.66;33.45;101751.91;3453063;40;103221;-41
2021/06/14 10:27:36;;;;;;;;;;;;;;;26.82;35.55;101746.94;3452795;40;102262;-41
2021/06/14 10:30:06;;;;;;;;;;;;;;;27.04;35.02;101742.75;3452302;40;102316;-44
2021/06/14 10:32:35;;;;;;;;;;;;;;;27.04;32.65;101749.16;3452706;40;102665;-41
2021/06/14 10:35:03;;;;;;;;;;;;;;;27.26;33.56;101747.72;3452415;40;102355;-41
2021/06/14 10:37:33;;;;;;;;;;;;;;;27.20;33.37;101740.53;3452799;40;102195;-41
2021/06/14 10:40:01;;;;;;;;;;;;;;;27.11;31.70;101735.63;3452872;40;103013;-43
2021/06/14 10:42:29;;;;;;;;;;;;;;;27.13;30.57;101727.75;3452680;40;103244;-42
2021/06/14 10:44:57;;;;;;;;;;;;;;;27.16;30.04;101731.91;3452460;40;104703;-38
2021/06/14 10:47:25;;;;;;;;;;;;;;;27.26;32.62;101731.75;3443626;40;103075;-41
2021/06/14 10:49:55;;;;;;;;;;;;;;;27.40;33.78;101736.56;3452918;40;103010;-38
2021/06/14 10:52:23;;;;;;;;;;;;;;;27.62;36.07;101741.56;3452557;40;102360;-39
2021/06/14 10:54:51;;;;;;;;;;;;;;;27.82;30.29;101747.91;3452242;40;103156;-39
2021/06/14 10:57:18;;;;;;;;;;;;;;;27.92;28.93;101738.47;3452588;40;102881;-38
2021/06/14 10:59:46;;;;;;;;;;;;;;;28.02;30.42;101729.06;3452311;40;102278;-38
2021/06/14 11:02:18;;;;;;;;;;;;;;;28.12;28.96;101735.28;3452081;40;102539;-38
2021/06/14 11:04:46;;;;;;;;;;;;;;;28.28;31.05;101735.84;3452442;40;102243;-39
2021/06/14 11:07:14;;;;;;;;;;;;;;;28.22;27.34;101736.25;3452399;40;102312;-40
2021/06/14 11:09:52;;;;;;;;;;;;;;;28.15;29.48;101719.88;3452725;40;102351;-39
2021/06/14 11:12:27;;;;;;;;;;;;;;;28.18;32.36;101719.22;3452280;40;102482;-39
2021/06/14 11:14:55;;;;;;;;;;;;;;;28.23;30.08;101716.31;3452231;40;103650;-39
2021/06/14 11:17:22;;;;;;;;;;;;;;;28.32;27.27;101718.38;3452344;40;102236;-39
2021/06/14 11:19:52;;;;;;;;;;;;;;;28.25;30.79;101708.41;3452295;40;102207;-42
2021/06/14 11:22:20;;;;;;;;;;;;;;;28.32;32.30;101712.78;3451914;40;102530;-39
2021/06/14 11:24:48;;;;;;;;;;;;;;;28.33;27.49;101711.63;3451679;40;102368;-39
2021/06/14 11:27:16;;;;;;;;;;;;;;;28.38;34.73;101714.31;3452214;40;102505;-38
2021/06/14 11:29:48;;;;;;;;;;;;;;;28.53;32.88;101713.19;3452217;40;103472;-39